createdAt,value
2022-09-03T00:00:14.570Z,38.12
2022-09-03T00:05:20.055Z,38.15
2022-09-03T00:10:25.431Z,38.25
2022-09-03T00:15:29.517Z,38.45
2022-09-03T00:20:33.173Z,38.60
2022-09-03T00:25:38.559Z,38.48
2022-09-03T00:30:43.813Z,38.71
2022-09-03T00:35:48.602Z,38.87
2022-09-03T00:41:01.613Z,38.80
2022-09-03T00:46:08.962Z,39.05
2022-09-03T00:51:16.809Z,39.17
2022-09-03T00:56:23.269Z,39.11
2022-09-03T01:01:31.055Z,39.23
2022-09-03T01:06:36.667Z,39.30
2022-09-03T01:11:47.136Z,39.38
2022-09-03T01:16:53.318Z,39.45
2022-09-03T01:22:05.589Z,39.56
2022-09-03T01:27:16.531Z,39.49
2022-09-03T01:32:24.921Z,39.74
2022-09-03T01:37:34.042Z,39.80
2022-09-03T01:42:44.076Z,39.83
2022-09-03T01:47:56.081Z,40.00
2022-09-03T01:53:03.024Z,40.13
2022-09-03T01:58:07.617Z,40.00
2022-09-03T02:03:11.576Z,39.99
2022-09-03T02:08:14.223Z,39.84
2022-09-03T02:13:18.483Z,40.02
2022-09-03T02:18:24.083Z,40.02
2022-09-03T02:23:31.935Z,39.98
2022-09-03T02:28:34.632Z,40.13
2022-09-03T02:33:39.825Z,40.23
2022-09-03T02:38:43.031Z,40.19
2022-09-03T02:43:48.531Z,40.15
2022-09-03T02:48:53.009Z,40.04
2022-09-03T02:53:55.943Z,40.17
2022-09-03T02:58:58.679Z,40.01
2022-09-03T03:04:03.032Z,40.16
2022-09-03T03:09:07.019Z,40.31
2022-09-03T03:14:10.669Z,40.28
2022-09-03T03:19:14.758Z,40.50
2022-09-03T03:24:17.555Z,40.59
2022-09-03T03:29:20.667Z,40.48
2022-09-03T03:34:24.693Z,40.56
2022-09-03T03:39:27.463Z,40.66
2022-09-03T03:44:30.185Z,40.81
2022-09-03T03:49:34.526Z,41.05
2022-09-03T03:54:37.339Z,41.15
2022-09-03T03:59:40.061Z,40.91
2022-09-03T04:04:44.232Z,40.84
2022-09-03T04:09:47.335Z,41.00
2022-09-03T04:14:50.283Z,40.95
2022-09-03T04:19:54.328Z,41.14
2022-09-03T04:24:57.114Z,41.11
2022-09-03T04:29:59.849Z,41.26
2022-09-03T04:35:06.707Z,41.64
2022-09-03T04:40:10.044Z,41.58
2022-09-03T04:45:18.660Z,41.80
2022-09-03T04:50:23.655Z,41.94
2022-09-03T04:55:35.160Z,41.91
2022-09-03T05:00:37.947Z,41.81
2022-09-03T05:05:42.418Z,41.95
2022-09-03T05:10:45.084Z,42.04
2022-09-03T05:15:47.958Z,41.93
2022-09-03T05:20:59.023Z,41.90
2022-09-03T05:26:02.568Z,41.83
2022-09-03T05:31:06.468Z,42.11
2022-09-03T05:36:13.076Z,42.23
2022-09-03T05:41:16.236Z,42.23
2022-09-03T05:46:21.692Z,41.93
2022-09-03T05:51:25.715Z,42.14
2022-09-03T05:56:29.732Z,42.04
2022-09-03T06:01:33.141Z,42.22
2022-09-03T06:06:38.231Z,42.28
2022-09-03T06:11:42.680Z,42.12
2022-09-03T06:16:48.921Z,42.16
2022-09-03T06:21:53.119Z,42.27
2022-09-03T06:26:56.229Z,42.18
2022-09-03T06:31:59.425Z,42.10
2022-09-03T06:37:03.478Z,42.05
2022-09-03T06:42:06.805Z,42.16
2022-09-03T06:47:12.373Z,41.94
2022-09-03T06:52:16.617Z,41.99
2022-09-03T06:57:20.351Z,41.82
2022-09-03T07:02:23.253Z,41.88
2022-09-03T07:07:27.481Z,41.93
2022-09-03T07:12:30.181Z,42.01
2022-09-03T07:17:32.884Z,42.30
2022-09-03T07:22:37.022Z,42.22
2022-09-03T07:27:39.758Z,42.30
2022-09-03T07:32:42.483Z,42.05
2022-09-03T07:37:46.556Z,42.10
2022-09-03T07:42:54.540Z,38.72
2022-09-03T07:47:57.935Z,38.47
2022-09-03T07:53:02.053Z,38.71
2022-09-03T07:58:04.814Z,38.10
2022-09-03T08:03:08.753Z,37.53
2022-09-03T08:08:25.588Z,37.46
2022-09-03T08:13:33.964Z,37.26
2022-09-03T08:18:37.696Z,37.16
2022-09-03T08:23:42.650Z,36.85
2022-09-03T08:28:45.522Z,36.90
2022-09-03T08:33:49.030Z,36.62
2022-09-03T08:38:55.196Z,36.45
2022-09-03T08:44:08.752Z,36.44
2022-09-03T08:49:12.409Z,36.64
2022-09-03T08:54:16.422Z,36.43
2022-09-03T08:59:20.813Z,37.22
2022-09-03T09:04:42.190Z,38.55
2022-09-03T09:09:49.887Z,38.89
2022-09-03T09:15:00.301Z,39.25
2022-09-03T09:20:08.134Z,39.83
2022-09-03T09:25:14.605Z,39.95
2022-09-03T09:30:18.079Z,40.08
2022-09-03T09:35:21.052Z,40.24
2022-09-03T09:40:33.044Z,40.06
2022-09-03T09:45:37.305Z,40.02
2022-09-03T09:50:40.052Z,39.50
2022-09-03T09:55:54.603Z,39.39
2022-09-03T10:01:03.069Z,39.26
2022-09-03T10:06:21.392Z,39.26
2022-09-03T10:11:27.468Z,39.25
2022-09-03T10:16:31.638Z,38.85
2022-09-03T10:21:38.963Z,38.62
2022-09-03T10:26:44.589Z,39.24
2022-09-03T10:31:55.203Z,39.64
2022-09-03T10:37:01.480Z,38.18
2022-09-03T10:42:09.609Z,38.51
2022-09-03T10:47:21.705Z,38.12
2022-09-03T10:52:28.714Z,37.55
2022-09-03T10:57:39.080Z,37.05
2022-09-03T11:03:07.350Z,37.07
2022-09-03T11:08:13.297Z,36.45
2022-09-03T11:13:20.087Z,36.32
2022-09-03T11:18:25.039Z,36.02
2022-09-03T11:23:28.368Z,35.94
2022-09-03T11:28:38.557Z,35.56
2022-09-03T11:33:42.810Z,35.68
2022-09-03T11:38:45.673Z,35.57
2022-09-03T11:43:49.994Z,36.03
2022-09-03T11:48:53.918Z,35.80
2022-09-03T11:53:57.017Z,35.87
2022-09-03T11:59:04.145Z,35.48
2022-09-03T12:04:07.650Z,35.47
2022-09-03T12:09:21.234Z,35.62
2022-09-03T12:14:28.180Z,35.22
2022-09-03T12:19:36.583Z,34.99
2022-09-03T12:24:39.428Z,35.45
2022-09-03T12:29:51.855Z,36.03
2022-09-03T12:34:54.958Z,35.14
2022-09-03T12:40:07.759Z,34.76
2022-09-03T12:45:16.470Z,34.63
2022-09-03T12:50:20.491Z,34.41
2022-09-03T12:55:29.096Z,34.65
2022-09-03T13:00:33.952Z,34.59
2022-09-03T13:05:39.061Z,38.06
2022-09-03T13:10:42.511Z,38.11
2022-09-03T13:15:57.233Z,37.44
2022-09-03T13:21:08.050Z,37.49
2022-09-03T13:26:18.791Z,39.98
2022-09-03T13:31:28.206Z,38.27
2022-09-03T13:36:32.629Z,36.14
2022-09-03T13:41:38.724Z,36.34
2022-09-03T13:46:45.761Z,36.30
2022-09-03T13:51:50.529Z,36.71
2022-09-03T13:56:57.690Z,35.28
2022-09-03T14:02:08.508Z,35.66
2022-09-03T14:07:14.750Z,35.83
2022-09-03T14:12:19.551Z,35.21
2022-09-03T14:17:32.073Z,34.95
2022-09-03T14:22:42.436Z,34.55
2022-09-03T14:27:45.155Z,35.05
2022-09-03T14:32:51.421Z,34.58
2022-09-03T14:38:12.413Z,34.07
2022-09-03T14:43:49.576Z,33.77
2022-09-03T14:49:05.198Z,33.75
2022-09-03T14:54:38.391Z,33.89
2022-09-03T14:59:51.851Z,33.73
2022-09-03T15:05:09.588Z,33.40
2022-09-03T15:10:19.140Z,34.54
2022-09-03T15:15:22.873Z,33.95
2022-09-03T15:20:33.127Z,33.99
2022-09-03T15:25:43.508Z,33.95
2022-09-03T15:30:47.173Z,33.48
2022-09-03T15:36:08.603Z,34.09
2022-09-03T15:41:30.939Z,33.63
2022-09-03T15:46:38.603Z,33.95
2022-09-03T15:51:47.103Z,34.46
2022-09-03T15:56:54.674Z,34.71
2022-09-03T16:01:58.875Z,34.84
2022-09-03T16:07:05.024Z,34.26
2022-09-03T16:12:12.331Z,33.79
2022-09-03T16:17:20.747Z,33.63
2022-09-03T16:22:27.908Z,33.33
2022-09-03T16:27:33.593Z,33.31
2022-09-03T16:32:57.538Z,33.18
2022-09-03T16:38:10.215Z,33.33
2022-09-03T16:43:39.700Z,33.10
2022-09-03T16:48:49.202Z,33.38
2022-09-03T16:54:08.424Z,33.82
2022-09-03T16:59:16.885Z,34.37
2022-09-03T17:04:36.636Z,34.59
2022-09-03T17:09:56.320Z,33.79
2022-09-03T17:15:14.168Z,33.92
2022-09-03T17:20:19.985Z,33.67
2022-09-03T17:25:29.955Z,34.01
2022-09-03T17:30:40.600Z,33.99
2022-09-03T17:35:47.867Z,34.08
2022-09-03T17:40:59.409Z,33.57
2022-09-03T17:46:09.635Z,33.75
2022-09-03T17:51:16.285Z,33.89
2022-09-03T17:56:24.565Z,34.00
2022-09-03T18:01:28.741Z,33.93
2022-09-03T18:06:34.042Z,33.95
2022-09-03T18:11:39.493Z,34.11
2022-09-03T18:16:43.341Z,34.15
2022-09-03T18:22:04.838Z,33.89
2022-09-03T18:27:28.611Z,33.98
2022-09-03T18:32:49.437Z,34.03
2022-09-03T18:38:09.513Z,34.09
2022-09-03T18:43:33.389Z,33.98
2022-09-03T18:48:55.064Z,33.91
2022-09-03T18:54:21.545Z,34.35
2022-09-03T18:59:51.647Z,34.81
2022-09-03T19:05:18.189Z,34.59
2022-09-03T19:10:39.754Z,34.59
2022-09-03T19:16:04.040Z,34.67
2022-09-03T19:21:30.045Z,34.97
2022-09-03T19:26:56.398Z,34.44
2022-09-03T19:32:19.940Z,34.75
2022-09-03T19:37:42.084Z,34.75
2022-09-03T19:43:08.478Z,34.61
2022-09-03T19:48:47.727Z,34.74
2022-09-03T19:54:08.135Z,35.01
2022-09-03T19:59:30.989Z,35.10
2022-09-03T20:04:54.663Z,35.14
2022-09-03T20:10:16.647Z,35.34
2022-09-03T20:15:19.424Z,35.53
2022-09-03T20:20:25.636Z,35.69
2022-09-03T20:25:38.904Z,35.38
2022-09-03T20:30:43.752Z,35.57
2022-09-03T20:35:53.486Z,35.97
2022-09-03T20:41:10.603Z,35.76
2022-09-03T20:46:25.862Z,35.87
2022-09-03T20:51:34.932Z,36.08
2022-09-03T20:56:48.057Z,36.14
2022-09-03T21:01:53.830Z,36.21
2022-09-03T21:07:00.873Z,35.96
2022-09-03T21:12:06.813Z,36.21
2022-09-03T21:17:21.365Z,36.33
2022-09-03T21:22:29.664Z,36.54
2022-09-03T21:27:34.506Z,36.46
2022-09-03T21:32:42.156Z,36.40
2022-09-03T21:37:51.167Z,36.51
2022-09-03T21:42:55.198Z,36.33
2022-09-03T21:47:59.680Z,36.44
2022-09-03T21:53:04.925Z,36.18
2022-09-03T21:58:15.094Z,36.19
2022-09-03T22:03:17.954Z,36.53
2022-09-03T22:08:24.701Z,36.21
2022-09-03T22:13:30.949Z,36.18
2022-09-03T22:18:37.860Z,36.35
2022-09-03T22:23:48.030Z,36.39
2022-09-03T22:28:57.741Z,36.49
2022-09-03T22:34:04.710Z,36.55
2022-09-03T22:39:15.038Z,36.48
2022-09-03T22:44:25.876Z,36.58
2022-09-03T22:49:32.982Z,36.49
2022-09-03T22:54:44.396Z,36.37
2022-09-03T22:59:51.113Z,36.58
2022-09-03T23:05:01.965Z,36.69
2022-09-03T23:10:07.595Z,36.71
2022-09-03T23:15:11.431Z,37.11
2022-09-03T23:20:16.136Z,36.97
2022-09-03T23:25:21.415Z,36.97
2022-09-03T23:30:24.131Z,37.00
2022-09-03T23:35:28.042Z,37.19
2022-09-03T23:40:45.953Z,37.16
2022-09-03T23:45:51.378Z,37.09
2022-09-03T23:50:59.254Z,37.09
2022-09-03T23:56:09.084Z,37.46
